sensor_id;sensor_type;location;lat;lon;timestamp;temperature;humidity
2625;DHT22;1322;53.256;10.386;2022-07-04T00:00:37;19.30;99.90
2625;DHT22;1322;53.256;10.386;2022-07-04T00:03:02;19.20;99.90
2625;DHT22;1322;53.256;10.386;2022-07-04T00:05:28;19.20;99.90
2625;DHT22;1322;53.256;10.386;2022-07-04T00:07:54;19.30;99.90
2625;DHT22;1322;53.256;10.386;2022-07-04T00:10:20;19.30;99.90
2625;DHT22;1322;53.256;10.386;2022-07-04T00:12:47;19.20;99.90
2625;DHT22;1322;53.256;10.386;2022-07-04T00:15:13;19.10;99.90
2625;DHT22;1322;53.256;10.386;2022-07-04T00:17:39;19.10;99.90
2625;DHT22;1322;53.256;10.386;2022-07-04T00:20:06;19.10;99.90
2625;DHT22;1322;53.256;10.386;2022-07-04T00:22:32;19.10;99.90
2625;DHT22;1322;53.256;10.386;2022-07-04T00:24:57;19.10;99.90
2625;DHT22;1322;53.256;10.386;2022-07-04T00:27:23;19.00;99.90
2625;DHT22;1322;53.256;10.386;2022-07-04T00:29:50;19.00;99.90
2625;DHT22;1322;53.256;10.386;2022-07-04T00:32:15;19.00;99.90
2625;DHT22;1322;53.256;10.386;2022-07-04T00:34:41;18.90;99.90
2625;DHT22;1322;53.256;10.386;2022-07-04T00:37:07;18.90;99.90
2625;DHT22;1322;53.256;10.386;2022-07-04T00:39:32;18.90;99.90
2625;DHT22;1322;53.256;10.386;2022-07-04T00:41:58;18.90;99.90
2625;DHT22;1322;53.256;10.386;2022-07-04T00:44:24;18.80;99.90
2625;DHT22;1322;53.256;10.386;2022-07-04T00:46:49;18.80;99.90
2625;DHT22;1322;53.256;10.386;2022-07-04T00:49:16;18.80;99.90
2625;DHT22;1322;53.256;10.386;2022-07-04T00:51:43;18.80;99.90
2625;DHT22;1322;53.256;10.386;2022-07-04T00:54:11;18.70;99.90
2625;DHT22;1322;53.256;10.386;2022-07-04T00:56:39;18.70;99.90
2625;DHT22;1322;53.256;10.386;2022-07-04T00:59:06;18.70;99.90
2625;DHT22;1322;53.256;10.386;2022-07-04T01:01:32;18.70;99.90
2625;DHT22;1322;53.256;10.386;2022-07-04T01:03:59;18.70;99.90
2625;DHT22;1322;53.256;10.386;2022-07-04T01:06:25;18.70;99.90
2625;DHT22;1322;53.256;10.386;2022-07-04T01:08:51;18.60;99.90
2625;DHT22;1322;53.256;10.386;2022-07-04T01:11:17;18.60;99.90
2625;DHT22;1322;53.256;10.386;2022-07-04T01:13:43;18.60;99.90
2625;DHT22;1322;53.256;10.386;2022-07-04T01:16:10;18.60;99.90
2625;DHT22;1322;53.256;10.386;2022-07-04T01:18:36;18.60;99.90
2625;DHT22;1322;53.256;10.386;2022-07-04T01:21:03;18.60;99.90
2625;DHT22;1322;53.256;10.386;2022-07-04T01:23:29;18.50;99.90
2625;DHT22;1322;53.256;10.386;2022-07-04T01:25:56;18.50;99.90
2625;DHT22;1322;53.256;10.386;2022-07-04T01:28:23;18.50;99.90
2625;DHT22;1322;53.256;10.386;2022-07-04T01:30:49;18.50;99.90
2625;DHT22;1322;53.256;10.386;2022-07-04T01:33:15;18.40;99.90
2625;DHT22;1322;53.256;10.386;2022-07-04T01:35:43;18.40;99.90
2625;DHT22;1322;53.256;10.386;2022-07-04T01:38:09;18.30;99.90
2625;DHT22;1322;53.256;10.386;2022-07-04T01:40:35;18.30;99.90
2625;DHT22;1322;53.256;10.386;2022-07-04T01:43:00;18.30;99.90
2625;DHT22;1322;53.256;10.386;2022-07-04T01:45:26;18.30;99.90
2625;DHT22;1322;53.256;10.386;2022-07-04T01:47:51;18.30;99.90
2625;DHT22;1322;53.256;10.386;2022-07-04T01:50:17;18.20;99.90
2625;DHT22;1322;53.256;10.386;2022-07-04T01:52:43;18.20;99.90
2625;DHT22;1322;53.256;10.386;2022-07-04T01:55:10;18.20;99.90
2625;DHT22;1322;53.256;10.386;2022-07-04T01:57:36;18.20;99.90
2625;DHT22;1322;53.256;10.386;2022-07-04T02:00:03;18.10;99.90
2625;DHT22;1322;53.256;10.386;2022-07-04T02:02:47;18.10;99.90
2625;DHT22;1322;53.256;10.386;2022-07-04T02:05:12;18.10;99.90
2625;DHT22;1322;53.256;10.386;2022-07-04T02:07:38;18.00;99.90
2625;DHT22;1322;53.256;10.386;2022-07-04T02:10:04;18.00;99.90
2625;DHT22;1322;53.256;10.386;2022-07-04T02:12:30;18.10;99.90
2625;DHT22;1322;53.256;10.386;2022-07-04T02:15:14;18.10;99.90
2625;DHT22;1322;53.256;10.386;2022-07-04T02:17:39;18.10;99.90
2625;DHT22;1322;53.256;10.386;2022-07-04T02:20:05;18.10;99.90
2625;DHT22;1322;53.256;10.386;2022-07-04T02:22:32;18.20;99.90
2625;DHT22;1322;53.256;10.386;2022-07-04T02:24:57;18.10;99.90
2625;DHT22;1322;53.256;10.386;2022-07-04T02:27:23;18.10;99.90
2625;DHT22;1322;53.256;10.386;2022-07-04T02:29:48;18.10;99.90
2625;DHT22;1322;53.256;10.386;2022-07-04T02:32:14;18.10;99.90
2625;DHT22;1322;53.256;10.386;2022-07-04T02:34:40;18.00;99.90
2625;DHT22;1322;53.256;10.386;2022-07-04T02:37:05;17.90;99.90
2625;DHT22;1322;53.256;10.386;2022-07-04T02:39:31;17.90;99.90
2625;DHT22;1322;53.256;10.386;2022-07-04T02:41:57;17.80;99.90
2625;DHT22;1322;53.256;10.386;2022-07-04T02:44:22;17.80;99.90
2625;DHT22;1322;53.256;10.386;2022-07-04T02:46:48;17.80;99.90
2625;DHT22;1322;53.256;10.386;2022-07-04T02:49:14;17.80;99.90
2625;DHT22;1322;53.256;10.386;2022-07-04T02:51:39;17.70;99.90
2625;DHT22;1322;53.256;10.386;2022-07-04T02:54:05;17.70;99.90
2625;DHT22;1322;53.256;10.386;2022-07-04T02:56:31;17.70;99.90
2625;DHT22;1322;53.256;10.386;2022-07-04T02:58:56;17.70;99.90
2625;DHT22;1322;53.256;10.386;2022-07-04T03:01:22;17.60;99.90
2625;DHT22;1322;53.256;10.386;2022-07-04T03:03:48;17.70;99.90
2625;DHT22;1322;53.256;10.386;2022-07-04T03:06:14;17.70;99.90
2625;DHT22;1322;53.256;10.386;2022-07-04T03:08:40;17.70;99.90
2625;DHT22;1322;53.256;10.386;2022-07-04T03:11:06;17.70;99.90
2625;DHT22;1322;53.256;10.386;2022-07-04T03:13:32;17.70;99.90
2625;DHT22;1322;53.256;10.386;2022-07-04T03:15:58;17.70;99.90
2625;DHT22;1322;53.256;10.386;2022-07-04T03:18:24;17.70;99.90
2625;DHT22;1322;53.256;10.386;2022-07-04T03:20:49;17.70;99.90
2625;DHT22;1322;53.256;10.386;2022-07-04T03:23:15;17.80;99.90
2625;DHT22;1322;53.256;10.386;2022-07-04T03:25:41;17.80;99.90
2625;DHT22;1322;53.256;10.386;2022-07-04T03:28:07;17.80;99.90
2625;DHT22;1322;53.256;10.386;2022-07-04T03:30:33;17.90;99.90
2625;DHT22;1322;53.256;10.386;2022-07-04T03:32:59;17.90;99.90
2625;DHT22;1322;53.256;10.386;2022-07-04T03:35:25;17.90;99.90
2625;DHT22;1322;53.256;10.386;2022-07-04T03:37:51;17.80;99.90
2625;DHT22;1322;53.256;10.386;2022-07-04T03:40:18;17.80;99.90
2625;DHT22;1322;53.256;10.386;2022-07-04T03:42:49;17.80;99.90
2625;DHT22;1322;53.256;10.386;2022-07-04T03:45:15;17.80;99.90
2625;DHT22;1322;53.256;10.386;2022-07-04T03:47:43;18.00;99.90
2625;DHT22;1322;53.256;10.386;2022-07-04T03:50:09;18.10;99.90
2625;DHT22;1322;53.256;10.386;2022-07-04T03:52:37;18.30;99.90
2625;DHT22;1322;53.256;10.386;2022-07-04T03:55:03;18.50;99.90
2625;DHT22;1322;53.256;10.386;2022-07-04T03:57:29;18.60;99.90
2625;DHT22;1322;53.256;10.386;2022-07-04T03:59:54;18.80;99.90
2625;DHT22;1322;53.256;10.386;2022-07-04T04:02:20;19.00;99.90
2625;DHT22;1322;53.256;10.386;2022-07-04T04:04:45;19.10;99.90
2625;DHT22;1322;53.256;10.386;2022-07-04T04:07:30;19.10;99.90
2625;DHT22;1322;53.256;10.386;2022-07-04T04:09:57;19.10;99.90
2625;DHT22;1322;53.256;10.386;2022-07-04T04:12:23;19.20;99.90
2625;DHT22;1322;53.256;10.386;2022-07-04T04:14:49;19.30;99.90
2625;DHT22;1322;53.256;10.386;2022-07-04T04:17:15;19.50;99.90
2625;DHT22;1322;53.256;10.386;2022-07-04T04:19:41;19.70;99.90
2625;DHT22;1322;53.256;10.386;2022-07-04T04:22:07;19.80;99.90
2625;DHT22;1322;53.256;10.386;2022-07-04T04:24:33;19.90;99.90
2625;DHT22;1322;53.256;10.386;2022-07-04T04:26:58;20.10;99.90
2625;DHT22;1322;53.256;10.386;2022-07-04T04:29:26;20.30;99.90
2625;DHT22;1322;53.256;10.386;2022-07-04T04:31:51;20.50;99.90
2625;DHT22;1322;53.256;10.386;2022-07-04T04:34:17;20.70;99.90
2625;DHT22;1322;53.256;10.386;2022-07-04T04:36:43;20.90;99.90
2625;DHT22;1322;53.256;10.386;2022-07-04T04:39:08;21.00;99.90
2625;DHT22;1322;53.256;10.386;2022-07-04T04:41:37;21.10;99.90
2625;DHT22;1322;53.256;10.386;2022-07-04T04:44:03;21.20;99.90
2625;DHT22;1322;53.256;10.386;2022-07-04T04:46:31;21.30;99.90
2625;DHT22;1322;53.256;10.386;2022-07-04T04:48:57;21.50;99.90
2625;DHT22;1322;53.256;10.386;2022-07-04T04:51:22;21.60;99.90
2625;DHT22;1322;53.256;10.386;2022-07-04T04:53:48;21.70;99.90
2625;DHT22;1322;53.256;10.386;2022-07-04T04:56:14;21.80;99.90
2625;DHT22;1322;53.256;10.386;2022-07-04T04:58:42;21.90;99.90
2625;DHT22;1322;53.256;10.386;2022-07-04T05:01:07;22.00;99.90
2625;DHT22;1322;53.256;10.386;2022-07-04T05:03:33;22.10;99.90
2625;DHT22;1322;53.256;10.386;2022-07-04T05:05:58;22.30;99.90
2625;DHT22;1322;53.256;10.386;2022-07-04T05:08:24;22.30;99.90
2625;DHT22;1322;53.256;10.386;2022-07-04T05:10:51;22.50;99.90
2625;DHT22;1322;53.256;10.386;2022-07-04T05:13:17;22.70;99.90
2625;DHT22;1322;53.256;10.386;2022-07-04T05:15:42;22.60;99.90
2625;DHT22;1322;53.256;10.386;2022-07-04T05:18:08;22.70;99.90
2625;DHT22;1322;53.256;10.386;2022-07-04T05:20:34;22.80;99.90
2625;DHT22;1322;53.256;10.386;2022-07-04T05:22:59;22.80;99.90
2625;DHT22;1322;53.256;10.386;2022-07-04T05:25:25;22.90;99.90
2625;DHT22;1322;53.256;10.386;2022-07-04T05:27:51;23.00;99.90
2625;DHT22;1322;53.256;10.386;2022-07-04T05:30:17;23.10;99.90
2625;DHT22;1322;53.256;10.386;2022-07-04T05:32:42;23.30;99.90
2625;DHT22;1322;53.256;10.386;2022-07-04T05:35:08;23.30;99.90
2625;DHT22;1322;53.256;10.386;2022-07-04T05:37:34;23.30;99.90
2625;DHT22;1322;53.256;10.386;2022-07-04T05:40:01;23.40;99.90
2625;DHT22;1322;53.256;10.386;2022-07-04T05:42:27;23.40;99.90
2625;DHT22;1322;53.256;10.386;2022-07-04T05:44:53;23.50;99.90
2625;DHT22;1322;53.256;10.386;2022-07-04T05:47:19;23.70;99.90
2625;DHT22;1322;53.256;10.386;2022-07-04T05:49:49;23.70;99.90
2625;DHT22;1322;53.256;10.386;2022-07-04T05:52:15;23.70;99.90
2625;DHT22;1322;53.256;10.386;2022-07-04T05:54:41;23.80;99.90
2625;DHT22;1322;53.256;10.386;2022-07-04T05:57:07;23.90;99.90
2625;DHT22;1322;53.256;10.386;2022-07-04T05:59:32;23.90;99.90
2625;DHT22;1322;53.256;10.386;2022-07-04T06:01:58;24.10;99.90
2625;DHT22;1322;53.256;10.386;2022-07-04T06:04:24;24.30;99.90
2625;DHT22;1322;53.256;10.386;2022-07-04T06:06:50;24.40;99.90
2625;DHT22;1322;53.256;10.386;2022-07-04T06:09:19;24.40;99.90
2625;DHT22;1322;53.256;10.386;2022-07-04T06:11:44;24.30;99.90
2625;DHT22;1322;53.256;10.386;2022-07-04T06:14:10;24.40;99.90
2625;DHT22;1322;53.256;10.386;2022-07-04T06:16:35;24.60;99.90
2625;DHT22;1322;53.256;10.386;2022-07-04T06:19:01;24.80;99.90
2625;DHT22;1322;53.256;10.386;2022-07-04T06:21:27;24.90;99.90
2625;DHT22;1322;53.256;10.386;2022-07-04T06:23:52;25.00;99.90
2625;DHT22;1322;53.256;10.386;2022-07-04T06:26:18;25.10;99.90
2625;DHT22;1322;53.256;10.386;2022-07-04T06:28:44;25.20;99.90
2625;DHT22;1322;53.256;10.386;2022-07-04T06:31:11;25.30;99.90
2625;DHT22;1322;53.256;10.386;2022-07-04T06:33:37;25.40;99.90
2625;DHT22;1322;53.256;10.386;2022-07-04T06:36:23;25.50;99.90
2625;DHT22;1322;53.256;10.386;2022-07-04T06:38:49;25.40;99.90
2625;DHT22;1322;53.256;10.386;2022-07-04T06:41:15;25.30;99.90
2625;DHT22;1322;53.256;10.386;2022-07-04T06:43:41;25.30;99.90
2625;DHT22;1322;53.256;10.386;2022-07-04T06:46:06;25.40;99.90
2625;DHT22;1322;53.256;10.386;2022-07-04T06:48:32;25.60;99.90
2625;DHT22;1322;53.256;10.386;2022-07-04T06:50:57;25.80;99.90
2625;DHT22;1322;53.256;10.386;2022-07-04T06:53:23;25.80;99.90
2625;DHT22;1322;53.256;10.386;2022-07-04T06:55:49;25.90;99.90
2625;DHT22;1322;53.256;10.386;2022-07-04T06:58:14;26.00;99.90
2625;DHT22;1322;53.256;10.386;2022-07-04T07:00:40;25.80;99.90
2625;DHT22;1322;53.256;10.386;2022-07-04T07:03:10;25.70;99.90
2625;DHT22;1322;53.256;10.386;2022-07-04T07:05:35;25.70;99.90
2625;DHT22;1322;53.256;10.386;2022-07-04T07:08:03;25.50;99.90
2625;DHT22;1322;53.256;10.386;2022-07-04T07:10:30;25.30;99.90
2625;DHT22;1322;53.256;10.386;2022-07-04T07:12:58;25.50;99.90
2625;DHT22;1322;53.256;10.386;2022-07-04T07:15:23;25.70;99.90
2625;DHT22;1322;53.256;10.386;2022-07-04T07:17:49;25.60;99.90
2625;DHT22;1322;53.256;10.386;2022-07-04T07:20:15;25.60;99.90
2625;DHT22;1322;53.256;10.386;2022-07-04T07:22:41;25.80;99.90
2625;DHT22;1322;53.256;10.386;2022-07-04T07:25:08;26.10;99.90
2625;DHT22;1322;53.256;10.386;2022-07-04T07:27:34;26.20;99.90
2625;DHT22;1322;53.256;10.386;2022-07-04T07:30:00;26.20;99.90
2625;DHT22;1322;53.256;10.386;2022-07-04T07:32:25;25.90;99.90
2625;DHT22;1322;53.256;10.386;2022-07-04T07:34:51;25.90;99.90
2625;DHT22;1322;53.256;10.386;2022-07-04T07:37:17;25.90;99.90
2625;DHT22;1322;53.256;10.386;2022-07-04T07:39:43;25.30;99.90
2625;DHT22;1322;53.256;10.386;2022-07-04T07:42:09;25.00;99.90
2625;DHT22;1322;53.256;10.386;2022-07-04T07:44:34;24.80;99.90
2625;DHT22;1322;53.256;10.386;2022-07-04T07:47:00;24.90;99.90
2625;DHT22;1322;53.256;10.386;2022-07-04T07:49:26;25.10;99.90
2625;DHT22;1322;53.256;10.386;2022-07-04T07:51:51;25.40;99.90
2625;DHT22;1322;53.256;10.386;2022-07-04T07:54:17;25.30;99.90
2625;DHT22;1322;53.256;10.386;2022-07-04T07:56:44;24.80;99.90
2625;DHT22;1322;53.256;10.386;2022-07-04T07:59:09;24.20;99.90
2625;DHT22;1322;53.256;10.386;2022-07-04T08:01:35;23.90;99.90
2625;DHT22;1322;53.256;10.386;2022-07-04T08:04:00;23.90;99.90
2625;DHT22;1322;53.256;10.386;2022-07-04T08:06:44;24.40;99.90
2625;DHT22;1322;53.256;10.386;2022-07-04T08:09:10;24.80;99.90
2625;DHT22;1322;53.256;10.386;2022-07-04T08:11:36;24.70;99.90
2625;DHT22;1322;53.256;10.386;2022-07-04T08:14:02;24.60;99.90
2625;DHT22;1322;53.256;10.386;2022-07-04T08:16:28;24.50;99.90
2625;DHT22;1322;53.256;10.386;2022-07-04T08:18:53;24.50;99.90
2625;DHT22;1322;53.256;10.386;2022-07-04T08:21:19;24.40;99.90
2625;DHT22;1322;53.256;10.386;2022-07-04T08:23:44;24.60;99.90
2625;DHT22;1322;53.256;10.386;2022-07-04T08:26:10;24.70;99.90
2625;DHT22;1322;53.256;10.386;2022-07-04T08:28:36;24.60;99.90
2625;DHT22;1322;53.256;10.386;2022-07-04T08:31:01;24.20;99.90
2625;DHT22;1322;53.256;10.386;2022-07-04T08:33:29;24.10;99.90
2625;DHT22;1322;53.256;10.386;2022-07-04T08:35:55;24.20;99.90
2625;DHT22;1322;53.256;10.386;2022-07-04T08:38:22;24.30;99.90
2625;DHT22;1322;53.256;10.386;2022-07-04T08:40:49;24.40;99.90
2625;DHT22;1322;53.256;10.386;2022-07-04T08:43:17;24.10;99.90
2625;DHT22;1322;53.256;10.386;2022-07-04T08:45:47;23.80;99.90
2625;DHT22;1322;53.256;10.386;2022-07-04T08:48:14;23.80;99.90
2625;DHT22;1322;53.256;10.386;2022-07-04T08:50:51;23.80;99.90
2625;DHT22;1322;53.256;10.386;2022-07-04T08:53:20;23.90;99.90
2625;DHT22;1322;53.256;10.386;2022-07-04T08:55:47;24.20;99.90
2625;DHT22;1322;53.256;10.386;2022-07-04T08:58:32;24.40;99.90
2625;DHT22;1322;53.256;10.386;2022-07-04T09:01:04;24.40;99.90
2625;DHT22;1322;53.256;10.386;2022-07-04T09:03:30;24.60;99.90
2625;DHT22;1322;53.256;10.386;2022-07-04T09:05:57;25.00;99.90
2625;DHT22;1322;53.256;10.386;2022-07-04T09:08:24;25.20;99.90
2625;DHT22;1322;53.256;10.386;2022-07-04T09:10:50;25.60;99.90
2625;DHT22;1322;53.256;10.386;2022-07-04T09:13:17;25.60;99.90
2625;DHT22;1322;53.256;10.386;2022-07-04T09:15:48;25.40;99.90
2625;DHT22;1322;53.256;10.386;2022-07-04T09:18:28;25.10;99.90
2625;DHT22;1322;53.256;10.386;2022-07-04T09:20:59;24.80;99.90
2625;DHT22;1322;53.256;10.386;2022-07-04T09:26:11;25.30;99.90
2625;DHT22;1322;53.256;10.386;2022-07-04T09:28:39;25.60;99.90
2625;DHT22;1322;53.256;10.386;2022-07-04T09:31:34;25.60;99.90
2625;DHT22;1322;53.256;10.386;2022-07-04T09:34:07;25.10;99.90
2625;DHT22;1322;53.256;10.386;2022-07-04T09:36:34;24.90;99.90
2625;DHT22;1322;53.256;10.386;2022-07-04T09:44:27;25.50;99.90
2625;DHT22;1322;53.256;10.386;2022-07-04T09:46:54;25.50;99.90
2625;DHT22;1322;53.256;10.386;2022-07-04T09:49:20;25.40;99.90
2625;DHT22;1322;53.256;10.386;2022-07-04T09:51:51;25.70;99.90
2625;DHT22;1322;53.256;10.386;2022-07-04T09:54:25;25.50;99.90
2625;DHT22;1322;53.256;10.386;2022-07-04T09:56:54;25.30;99.90
2625;DHT22;1322;53.256;10.386;2022-07-04T09:59:20;25.40;99.90
2625;DHT22;1322;53.256;10.386;2022-07-04T10:01:47;25.40;99.90
2625;DHT22;1322;53.256;10.386;2022-07-04T10:04:13;25.50;99.90
2625;DHT22;1322;53.256;10.386;2022-07-04T10:06:41;25.60;99.90
2625;DHT22;1322;53.256;10.386;2022-07-04T10:09:15;25.70;99.90
2625;DHT22;1322;53.256;10.386;2022-07-04T10:11:42;25.90;99.90
2625;DHT22;1322;53.256;10.386;2022-07-04T10:14:10;26.00;99.90
2625;DHT22;1322;53.256;10.386;2022-07-04T10:16:37;25.90;99.90
2625;DHT22;1322;53.256;10.386;2022-07-04T10:19:04;26.00;99.90
2625;DHT22;1322;53.256;10.386;2022-07-04T10:21:31;26.10;99.90
2625;DHT22;1322;53.256;10.386;2022-07-04T10:23:58;26.20;99.90
2625;DHT22;1322;53.256;10.386;2022-07-04T10:26:24;26.30;99.90
2625;DHT22;1322;53.256;10.386;2022-07-04T10:28:50;26.40;99.90
2625;DHT22;1322;53.256;10.386;2022-07-04T10:31:19;26.30;99.90
2625;DHT22;1322;53.256;10.386;2022-07-04T10:33:46;26.20;99.90
2625;DHT22;1322;53.256;10.386;2022-07-04T10:36:20;26.10;99.90
2625;DHT22;1322;53.256;10.386;2022-07-04T10:38:54;25.80;99.90
2625;DHT22;1322;53.256;10.386;2022-07-04T10:41:22;25.70;99.90
2625;DHT22;1322;53.256;10.386;2022-07-04T10:46:29;25.20;99.90
2625;DHT22;1322;53.256;10.386;2022-07-04T10:51:46;25.10;99.90
2625;DHT22;1322;53.256;10.386;2022-07-04T10:56:51;25.80;99.90
2625;DHT22;1322;53.256;10.386;2022-07-04T10:59:35;26.30;99.90
2625;DHT22;1322;53.256;10.386;2022-07-04T11:18:03;26.90;99.90
2625;DHT22;1322;53.256;10.386;2022-07-04T11:20:31;26.70;99.90
2625;DHT22;1322;53.256;10.386;2022-07-04T11:23:17;26.90;99.90
2625;DHT22;1322;53.256;10.386;2022-07-04T11:25:46;27.10;99.90
2625;DHT22;1322;53.256;10.386;2022-07-04T11:28:22;27.10;99.90
2625;DHT22;1322;53.256;10.386;2022-07-04T11:30:55;27.00;99.90
2625;DHT22;1322;53.256;10.386;2022-07-04T11:33:24;26.90;99.90
2625;DHT22;1322;53.256;10.386;2022-07-04T11:38:48;26.60;99.90
2625;DHT22;1322;53.256;10.386;2022-07-04T11:41:23;26.40;99.90
2625;DHT22;1322;53.256;10.386;2022-07-04T11:44:10;26.40;99.90
2625;DHT22;1322;53.256;10.386;2022-07-04T11:47:13;26.30;99.90
2625;DHT22;1322;53.256;10.386;2022-07-04T11:49:43;26.40;99.90
2625;DHT22;1322;53.256;10.386;2022-07-04T11:52:09;26.50;99.90
2625;DHT22;1322;53.256;10.386;2022-07-04T11:54:35;26.40;99.90
2625;DHT22;1322;53.256;10.386;2022-07-04T11:57:11;26.50;99.90
2625;DHT22;1322;53.256;10.386;2022-07-04T11:59:38;26.40;99.90
2625;DHT22;1322;53.256;10.386;2022-07-04T12:02:15;26.10;99.90
2625;DHT22;1322;53.256;10.386;2022-07-04T12:04:42;25.90;99.90
2625;DHT22;1322;53.256;10.386;2022-07-04T12:07:14;25.90;99.90
2625;DHT22;1322;53.256;10.386;2022-07-04T12:09:41;25.90;99.90
2625;DHT22;1322;53.256;10.386;2022-07-04T12:12:10;26.10;99.90
2625;DHT22;1322;53.256;10.386;2022-07-04T12:14:36;26.40;99.90
2625;DHT22;1322;53.256;10.386;2022-07-04T12:17:18;26.40;99.90
2625;DHT22;1322;53.256;10.386;2022-07-04T12:19:52;26.30;99.90
2625;DHT22;1322;53.256;10.386;2022-07-04T12:22:54;26.30;99.90
2625;DHT22;1322;53.256;10.386;2022-07-04T12:25:35;26.50;99.90
2625;DHT22;1322;53.256;10.386;2022-07-04T12:28:11;26.90;99.90
2625;DHT22;1322;53.256;10.386;2022-07-04T12:30:39;27.20;99.90
2625;DHT22;1322;53.256;10.386;2022-07-04T12:33:07;27.10;99.90
2625;DHT22;1322;53.256;10.386;2022-07-04T12:35:35;27.10;99.90
2625;DHT22;1322;53.256;10.386;2022-07-04T12:38:06;26.90;99.90
2625;DHT22;1322;53.256;10.386;2022-07-04T12:40:33;27.00;99.90
2625;DHT22;1322;53.256;10.386;2022-07-04T12:42:59;27.20;99.90
2625;DHT22;1322;53.256;10.386;2022-07-04T12:45:26;27.30;99.90
2625;DHT22;1322;53.256;10.386;2022-07-04T12:48:17;27.40;99.90
2625;DHT22;1322;53.256;10.386;2022-07-04T12:50:44;27.50;99.90
2625;DHT22;1322;53.256;10.386;2022-07-04T12:53:10;27.70;99.90
2625;DHT22;1322;53.256;10.386;2022-07-04T12:55:43;27.80;99.90
2625;DHT22;1322;53.256;10.386;2022-07-04T12:58:11;28.00;99.90
2625;DHT22;1322;53.256;10.386;2022-07-04T13:00:38;28.10;99.90
2625;DHT22;1322;53.256;10.386;2022-07-04T13:03:04;28.20;99.90
2625;DHT22;1322;53.256;10.386;2022-07-04T13:05:30;28.50;99.90
2625;DHT22;1322;53.256;10.386;2022-07-04T13:07:56;28.50;99.90
2625;DHT22;1322;53.256;10.386;2022-07-04T13:10:22;28.50;99.90
2625;DHT22;1322;53.256;10.386;2022-07-04T13:12:48;28.30;99.90
2625;DHT22;1322;53.256;10.386;2022-07-04T13:15:15;28.00;99.90
2625;DHT22;1322;53.256;10.386;2022-07-04T13:17:40;27.50;99.90
2625;DHT22;1322;53.256;10.386;2022-07-04T13:20:06;27.60;99.90
2625;DHT22;1322;53.256;10.386;2022-07-04T13:22:32;27.80;99.90
2625;DHT22;1322;53.256;10.386;2022-07-04T13:24:58;28.00;99.90
2625;DHT22;1322;53.256;10.386;2022-07-04T13:27:26;28.20;99.90
2625;DHT22;1322;53.256;10.386;2022-07-04T13:29:54;28.40;99.90
2625;DHT22;1322;53.256;10.386;2022-07-04T13:32:20;28.40;99.90
2625;DHT22;1322;53.256;10.386;2022-07-04T13:34:45;28.10;99.90
2625;DHT22;1322;53.256;10.386;2022-07-04T13:37:11;27.80;99.90
2625;DHT22;1322;53.256;10.386;2022-07-04T13:39:37;27.70;99.90
2625;DHT22;1322;53.256;10.386;2022-07-04T13:42:02;27.80;99.90
2625;DHT22;1322;53.256;10.386;2022-07-04T13:44:29;28.00;99.90
2625;DHT22;1322;53.256;10.386;2022-07-04T13:46:54;28.20;99.90
2625;DHT22;1322;53.256;10.386;2022-07-04T13:49:21;28.30;99.90
2625;DHT22;1322;53.256;10.386;2022-07-04T13:51:47;28.10;99.90
2625;DHT22;1322;53.256;10.386;2022-07-04T13:54:13;28.00;99.90
2625;DHT22;1322;53.256;10.386;2022-07-04T13:56:39;27.80;99.90
2625;DHT22;1322;53.256;10.386;2022-07-04T13:59:05;27.60;99.90
2625;DHT22;1322;53.256;10.386;2022-07-04T14:01:30;27.30;99.90
2625;DHT22;1322;53.256;10.386;2022-07-04T14:03:56;27.50;99.90
2625;DHT22;1322;53.256;10.386;2022-07-04T14:06:22;27.70;99.90
2625;DHT22;1322;53.256;10.386;2022-07-04T14:08:47;27.90;99.90
2625;DHT22;1322;53.256;10.386;2022-07-04T14:11:13;28.10;99.90
2625;DHT22;1322;53.256;10.386;2022-07-04T14:13:41;28.20;99.90
2625;DHT22;1322;53.256;10.386;2022-07-04T14:16:07;28.10;99.90
2625;DHT22;1322;53.256;10.386;2022-07-04T14:18:33;28.00;99.90
2625;DHT22;1322;53.256;10.386;2022-07-04T14:20:59;27.90;99.90
2625;DHT22;1322;53.256;10.386;2022-07-04T14:23:24;27.70;99.90
2625;DHT22;1322;53.256;10.386;2022-07-04T14:26:12;27.50;99.90
2625;DHT22;1322;53.256;10.386;2022-07-04T14:28:38;27.40;99.90
2625;DHT22;1322;53.256;10.386;2022-07-04T14:31:04;27.40;99.90
2625;DHT22;1322;53.256;10.386;2022-07-04T14:33:30;27.20;99.90
2625;DHT22;1322;53.256;10.386;2022-07-04T14:35:55;27.10;99.90
2625;DHT22;1322;53.256;10.386;2022-07-04T14:38:21;27.00;99.90
2625;DHT22;1322;53.256;10.386;2022-07-04T14:40:47;26.90;99.90
2625;DHT22;1322;53.256;10.386;2022-07-04T14:43:15;26.80;99.90
2625;DHT22;1322;53.256;10.386;2022-07-04T14:45:43;26.70;99.90
2625;DHT22;1322;53.256;10.386;2022-07-04T14:48:09;26.90;99.90
2625;DHT22;1322;53.256;10.386;2022-07-04T14:50:34;27.10;99.90
2625;DHT22;1322;53.256;10.386;2022-07-04T14:53:00;27.10;99.90
2625;DHT22;1322;53.256;10.386;2022-07-04T14:55:26;27.00;99.90
2625;DHT22;1322;53.256;10.386;2022-07-04T14:57:51;26.90;99.90
2625;DHT22;1322;53.256;10.386;2022-07-04T15:00:17;26.80;99.90
2625;DHT22;1322;53.256;10.386;2022-07-04T15:02:42;26.70;99.90
2625;DHT22;1322;53.256;10.386;2022-07-04T15:05:12;26.70;99.90
2625;DHT22;1322;53.256;10.386;2022-07-04T15:07:38;26.80;99.90
2625;DHT22;1322;53.256;10.386;2022-07-04T15:10:05;26.70;99.90
2625;DHT22;1322;53.256;10.386;2022-07-04T15:12:33;26.70;99.90
2625;DHT22;1322;53.256;10.386;2022-07-04T15:14:59;26.70;99.90
2625;DHT22;1322;53.256;10.386;2022-07-04T15:17:24;26.90;99.90
2625;DHT22;1322;53.256;10.386;2022-07-04T15:19:52;27.00;99.90
2625;DHT22;1322;53.256;10.386;2022-07-04T15:22:37;27.10;99.90
2625;DHT22;1322;53.256;10.386;2022-07-04T15:25:20;27.30;99.90
2625;DHT22;1322;53.256;10.386;2022-07-04T15:27:46;27.30;99.90
2625;DHT22;1322;53.256;10.386;2022-07-04T15:30:12;27.30;99.90
2625;DHT22;1322;53.256;10.386;2022-07-04T15:32:37;27.00;99.90
2625;DHT22;1322;53.256;10.386;2022-07-04T15:35:03;26.80;99.90
2625;DHT22;1322;53.256;10.386;2022-07-04T15:37:32;26.70;99.90
2625;DHT22;1322;53.256;10.386;2022-07-04T15:40:03;26.60;99.90
2625;DHT22;1322;53.256;10.386;2022-07-04T15:42:31;26.50;99.90
2625;DHT22;1322;53.256;10.386;2022-07-04T15:44:58;26.30;99.90
2625;DHT22;1322;53.256;10.386;2022-07-04T15:47:24;26.10;99.90
2625;DHT22;1322;53.256;10.386;2022-07-04T15:49:49;25.90;99.90
2625;DHT22;1322;53.256;10.386;2022-07-04T15:52:15;25.90;99.90
2625;DHT22;1322;53.256;10.386;2022-07-04T15:54:41;25.90;99.90
2625;DHT22;1322;53.256;10.386;2022-07-04T15:57:07;25.90;99.90
2625;DHT22;1322;53.256;10.386;2022-07-04T15:59:33;26.00;99.90
2625;DHT22;1322;53.256;10.386;2022-07-04T16:01:58;26.10;99.90
2625;DHT22;1322;53.256;10.386;2022-07-04T16:04:24;26.20;99.90
2625;DHT22;1322;53.256;10.386;2022-07-04T16:06:50;26.30;99.90
2625;DHT22;1322;53.256;10.386;2022-07-04T16:09:16;26.20;99.90
2625;DHT22;1322;53.256;10.386;2022-07-04T16:11:41;26.10;99.90
2625;DHT22;1322;53.256;10.386;2022-07-04T16:14:07;26.10;99.90
2625;DHT22;1322;53.256;10.386;2022-07-04T16:16:34;26.20;99.90
2625;DHT22;1322;53.256;10.386;2022-07-04T16:19:00;26.20;99.90
2625;DHT22;1322;53.256;10.386;2022-07-04T16:21:26;26.20;99.90